Krugersdorp, South Africa
Current Conditions -  °F | °C
As of 6:00 AM on Saturday 25 Oct 2014 (Local Time) from FALA Reporting Station
Clear Clear  
Wind Chill: 59°   Ceiling: Unl
Heat Index: 59°   Visibility: 6mi
Dew Point: 48°   Wind: 2mph
Humidity: 67%   Direction: NA
Pressure: 30.15"   Gusts: NA
Location:  26.09°S, 27.77°E
Report Text: FALA 250400Z VRB02KT CAVOK 15/09 Q1021 NOSIG
Loading
Personal Weather Stations






























Interactive Weather Map
Tropical Storm Tracking
New forecast layout! Learn more

10-Day Weather Forecast

Advertisements
Track Severe Weather on mobile